sensor_id;sensor_type;location;lat;lon;timestamp;pressure;altitude;pressure_sealevel;temperature;humidity
27294;BME280;14785;52.556;13.430;2022-07-10T00:00:58;101162.31;;;14.67;100.00
27294;BME280;14785;52.556;13.430;2022-07-10T00:03:23;101172.16;;;14.74;100.00
27294;BME280;14785;52.556;13.430;2022-07-10T00:05:49;101167.59;;;14.91;100.00
27294;BME280;14785;52.556;13.430;2022-07-10T00:08:14;101172.16;;;14.74;100.00
27294;BME280;14785;52.556;13.430;2022-07-10T00:10:40;101162.47;;;14.81;100.00
27294;BME280;14785;52.556;13.430;2022-07-10T00:13:05;101167.13;;;14.87;100.00
27294;BME280;14785;52.556;13.430;2022-07-10T00:15:30;101178.53;;;14.81;100.00
27294;BME280;14785;52.556;13.430;2022-07-10T00:17:57;101168.66;;;14.66;100.00
27294;BME280;14785;52.556;13.430;2022-07-10T00:20:22;101172.78;;;14.92;100.00
27294;BME280;14785;52.556;13.430;2022-07-10T00:22:48;101164.81;;;14.68;100.00
27294;BME280;14785;52.556;13.430;2022-07-10T00:25:14;101146.56;;;14.64;100.00
27294;BME280;14785;52.556;13.430;2022-07-10T00:27:40;101164.50;;;14.63;100.00
27294;BME280;14785;52.556;13.430;2022-07-10T00:30:06;101154.09;;;14.76;100.00
27294;BME280;14785;52.556;13.430;2022-07-10T00:32:32;101151.75;;;14.73;100.00
27294;BME280;14785;52.556;13.430;2022-07-10T00:34:57;101159.28;;;14.70;100.00
27294;BME280;14785;52.556;13.430;2022-07-10T00:37:22;101150.91;;;14.73;100.00
27294;BME280;14785;52.556;13.430;2022-07-10T00:39:48;101149.03;;;14.89;100.00
27294;BME280;14785;52.556;13.430;2022-07-10T00:42:14;101152.25;;;14.69;100.00
27294;BME280;14785;52.556;13.430;2022-07-10T00:44:41;101145.41;;;14.66;100.00
27294;BME280;14785;52.556;13.430;2022-07-10T00:47:09;101147.59;;;14.63;100.00
27294;BME280;14785;52.556;13.430;2022-07-10T00:49:35;101142.75;;;14.66;100.00
27294;BME280;14785;52.556;13.430;2022-07-10T00:52:10;101155.13;;;14.67;100.00
27294;BME280;14785;52.556;13.430;2022-07-10T00:54:36;101138.41;;;14.57;100.00
27294;BME280;14785;52.556;13.430;2022-07-10T00:57:04;101148.91;;;14.67;100.00
27294;BME280;14785;52.556;13.430;2022-07-10T00:59:30;101138.88;;;14.61;100.00
27294;BME280;14785;52.556;13.430;2022-07-10T01:01:56;101128.63;;;14.80;100.00
27294;BME280;14785;52.556;13.430;2022-07-10T01:04:21;101133.63;;;14.83;100.00
27294;BME280;14785;52.556;13.430;2022-07-10T01:06:47;101129.69;;;14.55;100.00
27294;BME280;14785;52.556;13.430;2022-07-10T01:09:12;101125.66;;;14.75;100.00
27294;BME280;14785;52.556;13.430;2022-07-10T01:11:38;101117.47;;;14.61;100.00
27294;BME280;14785;52.556;13.430;2022-07-10T01:14:04;101119.28;;;14.68;100.00
27294;BME280;14785;52.556;13.430;2022-07-10T01:16:33;101115.78;;;14.68;100.00
27294;BME280;14785;52.556;13.430;2022-07-10T01:18:59;101110.56;;;14.82;100.00
27294;BME280;14785;52.556;13.430;2022-07-10T01:23:49;101108.91;;;14.65;100.00
27294;BME280;14785;52.556;13.430;2022-07-10T01:26:15;101122.00;;;14.44;100.00
27294;BME280;14785;52.556;13.430;2022-07-10T01:28:40;101119.34;;;14.52;100.00
27294;BME280;14785;52.556;13.430;2022-07-10T01:31:06;101115.91;;;14.74;100.00
27294;BME280;14785;52.556;13.430;2022-07-10T01:33:31;101114.25;;;14.81;100.00
27294;BME280;14785;52.556;13.430;2022-07-10T01:35:57;101123.97;;;14.74;100.00
27294;BME280;14785;52.556;13.430;2022-07-10T01:38:22;101115.16;;;15.04;100.00
27294;BME280;14785;52.556;13.430;2022-07-10T01:40:47;101112.78;;;15.09;100.00
27294;BME280;14785;52.556;13.430;2022-07-10T01:43:12;101108.78;;;15.05;100.00
27294;BME280;14785;52.556;13.430;2022-07-10T01:45:38;101114.78;;;14.61;100.00
27294;BME280;14785;52.556;13.430;2022-07-10T01:48:03;101112.53;;;14.88;100.00
27294;BME280;14785;52.556;13.430;2022-07-10T01:50:29;101109.44;;;15.07;100.00
27294;BME280;14785;52.556;13.430;2022-07-10T01:52:54;101116.66;;;15.07;100.00
27294;BME280;14785;52.556;13.430;2022-07-10T01:55:19;101123.03;;;14.51;100.00
27294;BME280;14785;52.556;13.430;2022-07-10T01:57:45;101123.84;;;14.60;100.00
27294;BME280;14785;52.556;13.430;2022-07-10T02:00:10;101109.59;;;14.59;100.00
27294;BME280;14785;52.556;13.430;2022-07-10T02:02:36;101109.25;;;14.78;100.00
27294;BME280;14785;52.556;13.430;2022-07-10T02:05:01;101125.88;;;14.50;100.00
27294;BME280;14785;52.556;13.430;2022-07-10T02:07:26;101109.88;;;14.80;100.00
27294;BME280;14785;52.556;13.430;2022-07-10T02:09:52;101103.72;;;14.80;100.00
27294;BME280;14785;52.556;13.430;2022-07-10T02:12:17;101118.84;;;15.03;100.00
27294;BME280;14785;52.556;13.430;2022-07-10T02:14:43;101127.00;;;14.63;100.00
27294;BME280;14785;52.556;13.430;2022-07-10T02:17:08;101113.63;;;14.63;100.00
27294;BME280;14785;52.556;13.430;2022-07-10T02:19:34;101104.28;;;14.51;100.00
27294;BME280;14785;52.556;13.430;2022-07-10T02:22:00;101105.44;;;14.57;100.00
27294;BME280;14785;52.556;13.430;2022-07-10T02:24:25;101109.13;;;14.56;100.00
27294;BME280;14785;52.556;13.430;2022-07-10T02:26:51;101104.59;;;14.56;100.00
27294;BME280;14785;52.556;13.430;2022-07-10T02:29:16;101103.28;;;14.52;100.00
27294;BME280;14785;52.556;13.430;2022-07-10T02:31:43;101094.03;;;14.63;100.00
27294;BME280;14785;52.556;13.430;2022-07-10T02:34:09;101102.13;;;14.47;100.00
27294;BME280;14785;52.556;13.430;2022-07-10T02:36:35;101093.25;;;14.54;100.00
27294;BME280;14785;52.556;13.430;2022-07-10T02:39:01;101101.28;;;14.38;100.00
27294;BME280;14785;52.556;13.430;2022-07-10T02:41:26;101098.75;;;14.53;100.00
27294;BME280;14785;52.556;13.430;2022-07-10T02:43:52;101092.41;;;14.46;100.00
27294;BME280;14785;52.556;13.430;2022-07-10T02:46:17;101095.28;;;14.28;100.00
27294;BME280;14785;52.556;13.430;2022-07-10T02:48:42;101099.78;;;14.12;100.00
27294;BME280;14785;52.556;13.430;2022-07-10T02:51:08;101098.59;;;14.22;100.00
27294;BME280;14785;52.556;13.430;2022-07-10T02:53:33;101104.63;;;14.16;100.00
27294;BME280;14785;52.556;13.430;2022-07-10T02:55:58;101101.13;;;14.40;100.00
27294;BME280;14785;52.556;13.430;2022-07-10T02:58:23;101100.63;;;14.20;100.00
27294;BME280;14785;52.556;13.430;2022-07-10T03:00:49;101102.81;;;14.01;100.00
27294;BME280;14785;52.556;13.430;2022-07-10T03:03:14;101091.78;;;14.28;100.00
27294;BME280;14785;52.556;13.430;2022-07-10T03:05:42;101097.63;;;14.15;100.00
27294;BME280;14785;52.556;13.430;2022-07-10T03:08:08;101092.59;;;14.04;100.00
27294;BME280;14785;52.556;13.430;2022-07-10T03:10:33;101106.81;;;14.05;100.00
27294;BME280;14785;52.556;13.430;2022-07-10T03:12:58;101098.31;;;14.17;100.00
27294;BME280;14785;52.556;13.430;2022-07-10T03:15:24;101091.28;;;14.32;100.00
27294;BME280;14785;52.556;13.430;2022-07-10T03:17:49;101101.28;;;14.22;100.00
27294;BME280;14785;52.556;13.430;2022-07-10T03:20:15;101095.94;;;14.22;100.00
27294;BME280;14785;52.556;13.430;2022-07-10T03:22:40;101090.44;;;14.32;100.00
27294;BME280;14785;52.556;13.430;2022-07-10T03:25:06;101109.31;;;13.82;100.00
27294;BME280;14785;52.556;13.430;2022-07-10T03:27:31;101103.13;;;13.82;100.00
27294;BME280;14785;52.556;13.430;2022-07-10T03:29:56;101091.78;;;14.04;100.00
27294;BME280;14785;52.556;13.430;2022-07-10T03:32:22;101097.78;;;14.14;100.00
27294;BME280;14785;52.556;13.430;2022-07-10T03:34:47;101103.81;;;13.92;100.00
27294;BME280;14785;52.556;13.430;2022-07-10T03:37:13;101088.28;;;14.11;100.00
27294;BME280;14785;52.556;13.430;2022-07-10T03:39:38;101088.94;;;13.89;100.00
27294;BME280;14785;52.556;13.430;2022-07-10T03:42:04;101083.94;;;13.78;100.00
27294;BME280;14785;52.556;13.430;2022-07-10T03:44:29;101083.59;;;14.05;100.00
27294;BME280;14785;52.556;13.430;2022-07-10T03:46:54;101089.59;;;13.83;100.00
27294;BME280;14785;52.556;13.430;2022-07-10T03:49:20;101082.25;;;13.77;100.00
27294;BME280;14785;52.556;13.430;2022-07-10T03:51:45;101085.25;;;14.06;100.00
27294;BME280;14785;52.556;13.430;2022-07-10T03:54:11;101085.91;;;13.92;100.00
27294;BME280;14785;52.556;13.430;2022-07-10T03:56:36;101087.25;;;14.04;100.00
27294;BME280;14785;52.556;13.430;2022-07-10T03:59:20;101092.97;;;13.93;100.00
27294;BME280;14785;52.556;13.430;2022-07-10T04:01:45;101086.06;;;14.23;100.00
27294;BME280;14785;52.556;13.430;2022-07-10T04:04:11;101093.59;;;13.95;100.00
27294;BME280;14785;52.556;13.430;2022-07-10T04:06:36;101089.44;;;13.77;100.00
27294;BME280;14785;52.556;13.430;2022-07-10T04:09:06;101082.59;;;13.82;100.00
27294;BME280;14785;52.556;13.430;2022-07-10T04:11:32;101090.59;;;13.82;100.00
27294;BME280;14785;52.556;13.430;2022-07-10T04:13:57;101097.97;;;13.88;100.00
27294;BME280;14785;52.556;13.430;2022-07-10T04:16:23;101104.31;;;14.03;100.00
27294;BME280;14785;52.556;13.430;2022-07-10T04:18:48;101085.25;;;14.06;100.00
27294;BME280;14785;52.556;13.430;2022-07-10T04:21:14;101093.44;;;13.97;100.00
27294;BME280;14785;52.556;13.430;2022-07-10T04:23:40;101088.75;;;14.15;100.00
27294;BME280;14785;52.556;13.430;2022-07-10T04:26:05;101081.59;;;14.23;100.00
27294;BME280;14785;52.556;13.430;2022-07-10T04:28:31;101078.91;;;14.15;100.00
27294;BME280;14785;52.556;13.430;2022-07-10T04:30:56;101105.66;;;13.75;100.00
27294;BME280;14785;52.556;13.430;2022-07-10T04:33:21;101092.63;;;13.72;100.00
27294;BME280;14785;52.556;13.430;2022-07-10T04:35:47;101085.91;;;13.68;100.00
27294;BME280;14785;52.556;13.430;2022-07-10T04:38:12;101085.59;;;13.95;100.00
27294;BME280;14785;52.556;13.430;2022-07-10T04:40:37;101070.22;;;13.97;100.00
27294;BME280;14785;52.556;13.430;2022-07-10T04:43:03;101077.59;;;13.87;100.00
27294;BME280;14785;52.556;13.430;2022-07-10T04:45:28;101085.59;;;13.87;100.00
27294;BME280;14785;52.556;13.430;2022-07-10T04:47:53;101082.06;;;14.11;100.00
27294;BME280;14785;52.556;13.430;2022-07-10T04:50:19;101095.63;;;14.09;100.00
27294;BME280;14785;52.556;13.430;2022-07-10T04:52:44;101058.47;;;14.22;100.00
27294;BME280;14785;52.556;13.430;2022-07-10T04:55:09;101066.69;;;14.37;100.00
27294;BME280;14785;52.556;13.430;2022-07-10T04:57:35;101078.91;;;14.07;100.00
27294;BME280;14785;52.556;13.430;2022-07-10T05:00:01;101076.56;;;14.04;100.00
27294;BME280;14785;52.556;13.430;2022-07-10T05:02:26;101069.53;;;14.03;100.00
27294;BME280;14785;52.556;13.430;2022-07-10T05:04:52;101094.97;;;13.99;100.00
27294;BME280;14785;52.556;13.430;2022-07-10T05:07:17;101084.91;;;14.01;100.00
27294;BME280;14785;52.556;13.430;2022-07-10T05:09:43;101075.06;;;14.10;100.00
27294;BME280;14785;52.556;13.430;2022-07-10T05:12:08;101097.66;;;14.23;100.00
27294;BME280;14785;52.556;13.430;2022-07-10T05:14:33;101077.91;;;14.24;100.00
27294;BME280;14785;52.556;13.430;2022-07-10T05:16:59;101083.94;;;14.02;100.00
27294;BME280;14785;52.556;13.430;2022-07-10T05:19:24;101080.25;;;14.11;100.00
27294;BME280;14785;52.556;13.430;2022-07-10T05:21:49;101083.25;;;14.00;100.00
27294;BME280;14785;52.556;13.430;2022-07-10T05:24:15;101087.94;;;14.06;100.00
27294;BME280;14785;52.556;13.430;2022-07-10T05:26:41;101064.16;;;14.19;100.00
27294;BME280;14785;52.556;13.430;2022-07-10T05:29:06;101065.78;;;14.52;100.00
27294;BME280;14785;52.556;13.430;2022-07-10T05:31:32;101079.13;;;14.68;100.00
27294;BME280;14785;52.556;13.430;2022-07-10T05:33:57;101077.13;;;14.62;100.00
27294;BME280;14785;52.556;13.430;2022-07-10T05:36:22;101075.91;;;14.81;100.00
27294;BME280;14785;52.556;13.430;2022-07-10T05:38:48;101078.38;;;14.44;100.00
27294;BME280;14785;52.556;13.430;2022-07-10T05:41:13;101080.72;;;14.39;100.00
27294;BME280;14785;52.556;13.430;2022-07-10T05:43:39;101066.75;;;14.59;100.00
27294;BME280;14785;52.556;13.430;2022-07-10T05:46:04;101085.91;;;14.40;100.00
27294;BME280;14785;52.556;13.430;2022-07-10T05:48:30;101074.19;;;14.41;100.00
27294;BME280;14785;52.556;13.430;2022-07-10T05:50:56;101072.81;;;14.53;100.00
27294;BME280;14785;52.556;13.430;2022-07-10T05:53:21;101082.28;;;14.80;100.00
27294;BME280;14785;52.556;13.430;2022-07-10T05:55:47;101076.44;;;14.76;100.00
27294;BME280;14785;52.556;13.430;2022-07-10T05:58:13;101083.09;;;14.34;100.00
27294;BME280;14785;52.556;13.430;2022-07-10T06:00:38;101096.78;;;14.39;100.00
27294;BME280;14785;52.556;13.430;2022-07-10T06:03:03;101068.13;;;14.63;100.00
27294;BME280;14785;52.556;13.430;2022-07-10T06:05:29;101074.44;;;14.70;100.00
27294;BME280;14785;52.556;13.430;2022-07-10T06:07:54;101085.09;;;14.86;100.00
27294;BME280;14785;52.556;13.430;2022-07-10T06:10:20;101101.22;;;14.62;100.00
27294;BME280;14785;52.556;13.430;2022-07-10T06:12:45;101079.78;;;14.70;100.00
27294;BME280;14785;52.556;13.430;2022-07-10T06:15:10;101069.28;;;14.61;100.00
27294;BME280;14785;52.556;13.430;2022-07-10T06:17:36;101084.63;;;14.83;100.00
27294;BME280;14785;52.556;13.430;2022-07-10T06:20:02;101091.53;;;14.61;100.00
27294;BME280;14785;52.556;13.430;2022-07-10T06:22:27;101086.19;;;14.61;100.00
27294;BME280;14785;52.556;13.430;2022-07-10T06:24:55;101087.38;;;14.97;100.00
27294;BME280;14785;52.556;13.430;2022-07-10T06:27:21;101088.34;;;14.66;100.00
27294;BME280;14785;52.556;13.430;2022-07-10T06:29:46;101072.50;;;14.48;100.00
27294;BME280;14785;52.556;13.430;2022-07-10T06:32:12;101080.19;;;14.51;100.00
27294;BME280;14785;52.556;13.430;2022-07-10T06:34:37;101097.28;;;14.42;100.00
27294;BME280;14785;52.556;13.430;2022-07-10T06:37:03;101080.41;;;14.80;100.00
27294;BME280;14785;52.556;13.430;2022-07-10T06:39:32;101074.53;;;14.93;100.00
27294;BME280;14785;52.556;13.430;2022-07-10T06:42:04;101090.25;;;14.96;100.00
27294;BME280;14785;52.556;13.430;2022-07-10T06:44:30;101088.84;;;14.69;100.00
27294;BME280;14785;52.556;13.430;2022-07-10T06:46:56;101073.06;;;14.82;100.00
27294;BME280;14785;52.556;13.430;2022-07-10T06:49:46;101096.28;;;14.90;100.00
27294;BME280;14785;52.556;13.430;2022-07-10T06:52:13;101082.22;;;15.26;100.00
27294;BME280;14785;52.556;13.430;2022-07-10T06:54:38;101083.59;;;15.53;100.00
27294;BME280;14785;52.556;13.430;2022-07-10T06:57:04;101082.28;;;15.72;100.00
27294;BME280;14785;52.556;13.430;2022-07-10T06:59:30;101091.63;;;15.22;100.00
27294;BME280;14785;52.556;13.430;2022-07-10T07:01:56;101081.97;;;15.36;100.00
27294;BME280;14785;52.556;13.430;2022-07-10T07:04:21;101085.06;;;15.56;100.00
27294;BME280;14785;52.556;13.430;2022-07-10T07:06:46;101074.41;;;15.48;100.00
27294;BME280;14785;52.556;13.430;2022-07-10T07:09:11;101091.16;;;15.50;100.00
27294;BME280;14785;52.556;13.430;2022-07-10T07:11:37;101083.06;;;15.58;100.00
27294;BME280;14785;52.556;13.430;2022-07-10T07:14:02;101070.25;;;15.68;100.00
27294;BME280;14785;52.556;13.430;2022-07-10T07:16:28;101068.81;;;15.80;100.00
27294;BME280;14785;52.556;13.430;2022-07-10T07:19:04;101072.97;;;15.60;100.00
27294;BME280;14785;52.556;13.430;2022-07-10T07:21:33;101083.34;;;15.85;100.00
27294;BME280;14785;52.556;13.430;2022-07-10T07:24:17;101061.06;;;15.85;100.00
27294;BME280;14785;52.556;13.430;2022-07-10T07:26:45;101067.69;;;16.11;100.00
27294;BME280;14785;52.556;13.430;2022-07-10T07:29:15;101070.03;;;16.29;100.00
27294;BME280;14785;52.556;13.430;2022-07-10T07:31:40;101070.75;;;16.74;100.00
27294;BME280;14785;52.556;13.430;2022-07-10T07:34:05;101076.56;;;16.49;100.00
27294;BME280;14785;52.556;13.430;2022-07-10T07:36:31;101062.13;;;16.50;100.00
27294;BME280;14785;52.556;13.430;2022-07-10T07:38:56;101078.38;;;16.34;100.00
27294;BME280;14785;52.556;13.430;2022-07-10T07:41:22;101065.63;;;16.36;100.00
27294;BME280;14785;52.556;13.430;2022-07-10T07:43:48;101090.25;;;15.80;100.00
27294;BME280;14785;52.556;13.430;2022-07-10T07:46:13;101121.59;;;16.02;100.00
27294;BME280;14785;52.556;13.430;2022-07-10T07:48:38;101085.38;;;15.83;100.00
27294;BME280;14785;52.556;13.430;2022-07-10T07:51:04;101082.09;;;16.33;100.00
27294;BME280;14785;52.556;13.430;2022-07-10T07:53:29;101091.72;;;16.42;100.00
27294;BME280;14785;52.556;13.430;2022-07-10T07:55:55;101063.53;;;16.09;100.00
27294;BME280;14785;52.556;13.430;2022-07-10T07:58:20;101078.97;;;16.44;100.00
27294;BME280;14785;52.556;13.430;2022-07-10T08:00:45;101070.44;;;16.84;100.00
27294;BME280;14785;52.556;13.430;2022-07-10T08:03:11;101070.16;;;16.64;100.00
27294;BME280;14785;52.556;13.430;2022-07-10T08:05:36;101079.66;;;16.38;100.00
27294;BME280;14785;52.556;13.430;2022-07-10T08:08:01;101095.84;;;15.93;100.00
27294;BME280;14785;52.556;13.430;2022-07-10T08:10:31;101070.97;;;15.99;100.00
27294;BME280;14785;52.556;13.430;2022-07-10T08:12:57;101079.53;;;16.17;100.00
27294;BME280;14785;52.556;13.430;2022-07-10T08:15:23;101080.03;;;16.35;100.00
27294;BME280;14785;52.556;13.430;2022-07-10T08:17:49;101070.53;;;16.47;100.00
27294;BME280;14785;52.556;13.430;2022-07-10T08:20:15;101066.56;;;16.57;100.00
27294;BME280;14785;52.556;13.430;2022-07-10T08:22:41;101074.50;;;16.51;100.00
27294;BME280;14785;52.556;13.430;2022-07-10T08:25:08;101082.50;;;16.59;100.00
27294;BME280;14785;52.556;13.430;2022-07-10T08:27:34;101070.53;;;16.61;100.00
27294;BME280;14785;52.556;13.430;2022-07-10T08:29:59;101077.44;;;17.29;100.00
27294;BME280;14785;52.556;13.430;2022-07-10T08:32:25;101068.66;;;17.05;100.00
27294;BME280;14785;52.556;13.430;2022-07-10T08:34:52;101066.72;;;16.99;100.00
27294;BME280;14785;52.556;13.430;2022-07-10T08:37:18;101057.19;;;16.97;100.00
27294;BME280;14785;52.556;13.430;2022-07-10T08:39:45;101077.22;;;16.80;100.00
27294;BME280;14785;52.556;13.430;2022-07-10T08:42:10;101067.66;;;16.92;100.00
27294;BME280;14785;52.556;13.430;2022-07-10T08:44:36;101086.53;;;17.13;100.00
27294;BME280;14785;52.556;13.430;2022-07-10T08:47:03;101074.38;;;17.17;100.00
27294;BME280;14785;52.556;13.430;2022-07-10T08:49:30;101067.94;;;17.47;100.00
27294;BME280;14785;52.556;13.430;2022-07-10T08:52:13;101074.31;;;16.96;100.00
27294;BME280;14785;52.556;13.430;2022-07-10T08:54:49;101080.53;;;16.96;100.00
27294;BME280;14785;52.556;13.430;2022-07-10T08:57:15;101073.13;;;17.34;100.00
27294;BME280;14785;52.556;13.430;2022-07-10T08:59:41;101077.84;;;17.32;100.00
27294;BME280;14785;52.556;13.430;2022-07-10T09:02:06;101080.88;;;17.79;100.00
27294;BME280;14785;52.556;13.430;2022-07-10T09:04:35;101094.00;;;16.82;100.00
27294;BME280;14785;52.556;13.430;2022-07-10T09:07:00;101106.84;;;16.57;100.00
27294;BME280;14785;52.556;13.430;2022-07-10T09:09:26;101087.31;;;16.49;100.00
27294;BME280;14785;52.556;13.430;2022-07-10T09:11:58;101085.09;;;16.67;100.00
27294;BME280;14785;52.556;13.430;2022-07-10T09:14:25;101071.75;;;16.73;100.00
27294;BME280;14785;52.556;13.430;2022-07-10T09:16:53;101095.84;;;16.67;100.00
27294;BME280;14785;52.556;13.430;2022-07-10T09:21:50;101088.50;;;16.75;100.00
27294;BME280;14785;52.556;13.430;2022-07-10T09:24:16;101088.25;;;16.85;100.00
27294;BME280;14785;52.556;13.430;2022-07-10T09:29:21;101079.53;;;16.83;100.00
27294;BME280;14785;52.556;13.430;2022-07-10T09:31:58;101112.13;;;17.09;100.00
27294;BME280;14785;52.556;13.430;2022-07-10T09:34:44;101095.41;;;17.28;100.00
27294;BME280;14785;52.556;13.430;2022-07-10T09:37:29;101103.13;;;17.02;100.00
27294;BME280;14785;52.556;13.430;2022-07-10T09:40:04;101079.66;;;17.25;100.00
27294;BME280;14785;52.556;13.430;2022-07-10T09:47:56;101085.25;;;18.56;100.00
27294;BME280;14785;52.556;13.430;2022-07-10T09:53:05;101094.03;;;18.16;100.00
27294;BME280;14785;52.556;13.430;2022-07-10T09:55:33;101087.88;;;18.50;100.00
27294;BME280;14785;52.556;13.430;2022-07-10T09:58:00;101076.84;;;18.72;100.00
27294;BME280;14785;52.556;13.430;2022-07-10T10:03:10;101079.47;;;19.00;100.00
27294;BME280;14785;52.556;13.430;2022-07-10T10:05:52;101085.31;;;19.10;100.00
27294;BME280;14785;52.556;13.430;2022-07-10T10:08:25;101096.28;;;19.43;100.00
27294;BME280;14785;52.556;13.430;2022-07-10T10:10:53;101095.91;;;19.59;100.00
27294;BME280;14785;52.556;13.430;2022-07-10T10:13:23;101094.19;;;18.63;100.00
27294;BME280;14785;52.556;13.430;2022-07-10T10:15:50;101087.50;;;18.25;100.00
27294;BME280;14785;52.556;13.430;2022-07-10T10:18:22;101104.06;;;17.80;100.00
27294;BME280;14785;52.556;13.430;2022-07-10T10:20:49;101114.06;;;18.07;100.00
27294;BME280;14785;52.556;13.430;2022-07-10T10:23:20;101102.41;;;17.79;100.00
27294;BME280;14785;52.556;13.430;2022-07-10T10:25:48;101099.13;;;18.05;100.00
27294;BME280;14785;52.556;13.430;2022-07-10T10:28:14;101108.44;;;18.30;100.00
27294;BME280;14785;52.556;13.430;2022-07-10T10:30:43;101121.38;;;17.92;100.00
27294;BME280;14785;52.556;13.430;2022-07-10T10:36:13;101133.78;;;17.93;100.00
27294;BME280;14785;52.556;13.430;2022-07-10T10:46:32;101104.31;;;18.34;100.00
27294;BME280;14785;52.556;13.430;2022-07-10T10:49:08;101120.72;;;18.11;100.00
27294;BME280;14785;52.556;13.430;2022-07-10T10:52:02;101113.41;;;18.05;100.00
27294;BME280;14785;52.556;13.430;2022-07-10T10:54:30;101104.03;;;18.43;100.00
27294;BME280;14785;52.556;13.430;2022-07-10T10:57:13;101094.75;;;18.86;100.00
27294;BME280;14785;52.556;13.430;2022-07-10T10:59:46;101109.06;;;18.87;100.00
27294;BME280;14785;52.556;13.430;2022-07-10T11:02:30;101106.66;;;18.16;100.00
27294;BME280;14785;52.556;13.430;2022-07-10T11:07:58;101109.63;;;18.48;100.00
27294;BME280;14785;52.556;13.430;2022-07-10T11:13:05;101098.47;;;18.51;100.00
27294;BME280;14785;52.556;13.430;2022-07-10T11:15:33;101125.88;;;18.34;100.00
27294;BME280;14785;52.556;13.430;2022-07-10T11:18:06;101101.72;;;19.69;100.00
27294;BME280;14785;52.556;13.430;2022-07-10T11:20:40;101117.97;;;20.01;100.00
27294;BME280;14785;52.556;13.430;2022-07-10T11:26:05;101119.63;;;18.54;100.00
27294;BME280;14785;52.556;13.430;2022-07-10T11:28:53;101114.88;;;18.90;100.00
27294;BME280;14785;52.556;13.430;2022-07-10T11:31:20;101107.59;;;18.84;100.00
27294;BME280;14785;52.556;13.430;2022-07-10T11:33:47;101113.16;;;19.17;100.00
27294;BME280;14785;52.556;13.430;2022-07-10T11:36:14;101115.38;;;19.48;100.00
27294;BME280;14785;52.556;13.430;2022-07-10T11:38:43;101117.75;;;19.90;100.00
27294;BME280;14785;52.556;13.430;2022-07-10T11:41:20;101109.69;;;20.42;100.00
27294;BME280;14785;52.556;13.430;2022-07-10T11:43:54;101113.63;;;20.59;100.00
27294;BME280;14785;52.556;13.430;2022-07-10T11:46:22;101112.50;;;19.62;100.00
27294;BME280;14785;52.556;13.430;2022-07-10T11:48:49;101113.06;;;18.98;100.00
27294;BME280;14785;52.556;13.430;2022-07-10T11:51:38;101118.91;;;19.08;100.00
27294;BME280;14785;52.556;13.430;2022-07-10T11:54:09;101111.78;;;18.93;100.00
27294;BME280;14785;52.556;13.430;2022-07-10T11:56:39;101116.88;;;19.16;100.00
27294;BME280;14785;52.556;13.430;2022-07-10T11:59:10;101114.94;;;19.38;100.00
27294;BME280;14785;52.556;13.430;2022-07-10T12:01:42;101121.28;;;19.97;100.00
27294;BME280;14785;52.556;13.430;2022-07-10T12:04:08;101124.38;;;19.21;100.00
27294;BME280;14785;52.556;13.430;2022-07-10T12:06:36;101121.53;;;18.60;100.00
27294;BME280;14785;52.556;13.430;2022-07-10T12:09:06;101119.09;;;18.65;100.00
27294;BME280;14785;52.556;13.430;2022-07-10T12:11:33;101121.56;;;18.94;100.00
27294;BME280;14785;52.556;13.430;2022-07-10T12:14:15;101109.72;;;19.30;100.00
27294;BME280;14785;52.556;13.430;2022-07-10T12:16:46;101114.28;;;20.35;100.00
27294;BME280;14785;52.556;13.430;2022-07-10T12:19:16;101112.59;;;20.60;100.00
27294;BME280;14785;52.556;13.430;2022-07-10T12:21:45;101115.53;;;20.52;100.00
27294;BME280;14785;52.556;13.430;2022-07-10T12:24:12;101119.47;;;20.17;100.00
27294;BME280;14785;52.556;13.430;2022-07-10T12:26:40;101137.28;;;19.92;100.00
27294;BME280;14785;52.556;13.430;2022-07-10T12:29:27;101129.66;;;19.35;100.00
27294;BME280;14785;52.556;13.430;2022-07-10T12:31:57;101125.00;;;19.23;100.00
27294;BME280;14785;52.556;13.430;2022-07-10T12:34:36;101113.78;;;19.79;100.00
27294;BME280;14785;52.556;13.430;2022-07-10T12:37:10;101121.28;;;19.84;100.00
27294;BME280;14785;52.556;13.430;2022-07-10T12:39:37;101115.31;;;20.47;100.00
27294;BME280;14785;52.556;13.430;2022-07-10T12:42:05;101109.44;;;21.40;100.00
27294;BME280;14785;52.556;13.430;2022-07-10T12:44:45;101125.06;;;20.02;100.00
27294;BME280;14785;52.556;13.430;2022-07-10T12:47:17;101111.28;;;18.77;100.00
27294;BME280;14785;52.556;13.430;2022-07-10T12:50:01;101107.91;;;19.50;100.00
27294;BME280;14785;52.556;13.430;2022-07-10T12:52:35;101112.34;;;19.77;100.00
27294;BME280;14785;52.556;13.430;2022-07-10T12:55:14;101117.94;;;20.99;100.00
27294;BME280;14785;52.556;13.430;2022-07-10T12:57:47;101115.69;;;20.05;100.00
27294;BME280;14785;52.556;13.430;2022-07-10T13:00:14;101120.28;;;21.40;100.00
27294;BME280;14785;52.556;13.430;2022-07-10T13:02:39;101115.44;;;22.41;93.72
27294;BME280;14785;52.556;13.430;2022-07-10T13:05:05;101125.28;;;22.61;91.78
27294;BME280;14785;52.556;13.430;2022-07-10T13:07:35;101126.13;;;21.30;93.09
27294;BME280;14785;52.556;13.430;2022-07-10T13:10:06;101121.41;;;22.75;91.40